Time;durP1;ratioP1;P1;durP2;ratioP2;P2;SDS_P1;SDS_P2;PMS_P1;PMS_P2;Temp;Humidity;BMP_temperature;BMP_pressure;BME280_temperature;BME280_humidity;BME280_pressure;Samples;Min_cycle;Max_cycle;Signal;HPM_P1;HPM_P2
2022/03/12 00:00:07;;;;;;;9.27;5.00;;;;;;;;;;5028343;28;20026;-65
2022/03/12 00:02:34;;;;;;;7.07;4.75;;;;;;;;;;5027454;28;20094;-66
2022/03/12 00:05:01;;;;;;;7.97;4.60;;;;;;;;;;5027360;28;20045;-66
2022/03/12 00:07:29;;;;;;;8.90;4.78;;;;;;;;;;5028179;28;20052;-66
2022/03/12 00:09:55;;;;;;;10.73;5.35;;;;;;;;;;5027946;28;20033;-66
2022/03/12 00:12:22;;;;;;;7.20;4.63;;;;;;;;;;5027921;28;20037;-66
2022/03/12 00:14:49;;;;;;;10.57;5.00;;;;;;;;;;5027810;28;20044;-63
2022/03/12 00:17:18;;;;;;;6.97;4.55;;;;;;;;;;5020061;28;20041;-67
2022/03/12 00:19:44;;;;;;;6.97;4.50;;;;;;;;;;5012832;28;20025;-63
2022/03/12 00:22:12;;;;;;;6.72;4.07;;;;;;;;;;5027649;28;20113;-62
2022/03/12 00:24:40;;;;;;;10.48;4.68;;;;;;;;;;5027357;28;20029;-63
2022/03/12 00:27:08;;;;;;;8.45;5.18;;;;;;;;;;5027292;28;20036;-63
2022/03/12 00:29:35;;;;;;;6.60;4.13;;;;;;;;;;5027379;28;20742;-63
2022/03/12 00:32:03;;;;;;;7.38;4.82;;;;;;;;;;5027901;28;20450;-62
2022/03/12 00:34:30;;;;;;;6.57;4.18;;;;;;;;;;5030125;28;20080;-64
2022/03/12 00:36:56;;;;;;;6.78;4.05;;;;;;;;;;5031195;28;20031;-63
2022/03/12 00:39:22;;;;;;;7.57;4.22;;;;;;;;;;5031891;28;20021;-63
2022/03/12 00:41:48;;;;;;;7.65;4.32;;;;;;;;;;5031342;28;20078;-62
2022/03/12 00:44:17;;;;;;;8.07;4.40;;;;;;;;;;5031219;28;20079;-64
2022/03/12 00:46:44;;;;;;;6.68;4.55;;;;;;;;;;5031089;28;20030;-63
2022/03/12 00:49:11;;;;;;;8.43;4.50;;;;;;;;;;5031542;28;20081;-64
2022/03/12 00:51:39;;;;;;;6.00;3.90;;;;;;;;;;5030591;28;20111;-64
2022/03/12 00:54:05;;;;;;;7.68;4.50;;;;;;;;;;5031492;28;20040;-63
2022/03/12 00:56:31;;;;;;;7.82;4.32;;;;;;;;;;5030085;28;20029;-63
2022/03/12 00:58:58;;;;;;;6.40;4.00;;;;;;;;;;5031269;28;20107;-65
2022/03/12 01:01:26;;;;;;;7.47;4.63;;;;;;;;;;5030388;28;20036;-62
2022/03/12 01:03:52;;;;;;;7.40;4.40;;;;;;;;;;5031408;28;20075;-62
2022/03/12 01:06:18;;;;;;;9.48;4.65;;;;;;;;;;5030723;28;20018;-62
2022/03/12 01:08:45;;;;;;;6.07;3.90;;;;;;;;;;5030870;28;20813;-62
2022/03/12 01:11:11;;;;;;;6.60;3.83;;;;;;;;;;5029982;28;20407;-62
2022/03/12 01:13:38;;;;;;;6.47;3.97;;;;;;;;;;5031462;28;20030;-62
2022/03/12 01:16:05;;;;;;;6.18;4.10;;;;;;;;;;5031000;28;20056;-62
2022/03/12 01:18:31;;;;;;;7.68;4.30;;;;;;;;;;5031196;28;20021;-61
2022/03/12 01:21:06;;;;;;;8.88;3.97;;;;;;;;;;5029904;28;20025;-60
2022/03/12 01:23:32;;;;;;;6.20;4.05;;;;;;;;;;5029397;28;20163;-61
2022/03/12 01:25:58;;;;;;;6.50;3.72;;;;;;;;;;5031065;28;20112;-61
2022/03/12 01:28:25;;;;;;;8.68;4.47;;;;;;;;;;5026329;28;20461;-61
2022/03/12 01:30:51;;;;;;;6.47;4.05;;;;;;;;;;5011074;28;20053;-61
2022/03/12 01:33:18;;;;;;;7.38;4.15;;;;;;;;;;5023056;28;20463;-61
2022/03/12 01:35:44;;;;;;;6.85;3.75;;;;;;;;;;5029559;28;20028;-61
2022/03/12 01:38:11;;;;;;;8.15;4.38;;;;;;;;;;5030595;28;20024;-61
2022/03/12 01:40:37;;;;;;;5.68;3.58;;;;;;;;;;5030937;28;20112;-64
2022/03/12 01:43:05;;;;;;;7.70;3.63;;;;;;;;;;5030073;28;20481;-64
2022/03/12 01:45:32;;;;;;;6.03;3.38;;;;;;;;;;5029294;28;20022;-64
2022/03/12 01:48:02;;;;;;;5.53;3.38;;;;;;;;;;5029438;28;20021;-61
2022/03/12 01:50:32;;;;;;;7.32;4.10;;;;;;;;;;5029877;28;20844;-61
2022/03/12 01:53:00;;;;;;;6.05;3.90;;;;;;;;;;5029613;28;20122;-61
2022/03/12 01:55:30;;;;;;;6.03;4.03;;;;;;;;;;5030257;28;20025;-65
2022/03/12 01:57:57;;;;;;;7.07;4.15;;;;;;;;;;5030106;28;20029;-65
2022/03/12 02:00:25;;;;;;;6.22;3.22;;;;;;;;;;5030392;28;20120;-65
2022/03/12 02:02:53;;;;;;;6.72;3.40;;;;;;;;;;5029420;28;20471;-65
2022/03/12 02:05:20;;;;;;;7.60;4.10;;;;;;;;;;5030123;28;20078;-64
2022/03/12 02:07:46;;;;;;;7.50;3.72;;;;;;;;;;5028195;28;20026;-65
2022/03/12 02:10:17;;;;;;;7.72;4.00;;;;;;;;;;5019432;28;20029;-65
2022/03/12 02:12:43;;;;;;;6.68;4.20;;;;;;;;;;5029950;28;20399;-65
2022/03/12 02:15:09;;;;;;;7.20;4.05;;;;;;;;;;5029239;28;20032;-64
2022/03/12 02:17:37;;;;;;;5.75;3.47;;;;;;;;;;5028914;28;20052;-64
2022/03/12 02:20:04;;;;;;;5.63;3.60;;;;;;;;;;5022279;28;20101;-65
2022/03/12 02:22:29;;;;;;;6.75;4.35;;;;;;;;;;5028692;28;20736;-63
2022/03/12 02:24:56;;;;;;;5.85;3.60;;;;;;;;;;5029667;28;20021;-64
2022/03/12 02:27:26;;;;;;;6.70;3.42;;;;;;;;;;5029894;28;20426;-63
2022/03/12 02:29:59;;;;;;;6.93;3.70;;;;;;;;;;5029838;28;20083;-63
2022/03/12 02:32:26;;;;;;;6.82;3.65;;;;;;;;;;5029434;28;20500;-62
2022/03/12 02:34:53;;;;;;;6.10;3.67;;;;;;;;;;5027974;28;20025;-61
2022/03/12 02:37:33;;;;;;;7.20;3.75;;;;;;;;;;5029515;28;20029;-62
2022/03/12 02:40:04;;;;;;;5.95;3.70;;;;;;;;;;5019303;28;20471;-62
2022/03/12 02:42:31;;;;;;;6.00;3.70;;;;;;;;;;5028909;28;20116;-63
2022/03/12 02:45:00;;;;;;;6.70;3.60;;;;;;;;;;5029149;28;20030;-62
2022/03/12 02:47:32;;;;;;;6.35;3.88;;;;;;;;;;5021935;28;20040;-62
2022/03/12 02:50:16;;;;;;;5.75;3.55;;;;;;;;;;5029771;28;20025;-62
2022/03/12 02:52:44;;;;;;;6.28;3.50;;;;;;;;;;5025665;28;20071;-63
2022/03/12 02:55:13;;;;;;;6.55;3.63;;;;;;;;;;5015693;28;20037;-63
2022/03/12 02:57:40;;;;;;;6.88;3.55;;;;;;;;;;5028372;28;20030;-63
2022/03/12 03:00:08;;;;;;;5.82;3.47;;;;;;;;;;5029340;28;20867;-63
2022/03/12 03:02:41;;;;;;;7.28;4.00;;;;;;;;;;5028318;28;20033;-63
2022/03/12 03:07:59;;;;;;;5.40;3.03;;;;;;;;;;5019531;28;20045;-64
2022/03/12 03:10:38;;;;;;;6.72;3.30;;;;;;;;;;5028494;28;20021;-62
2022/03/12 03:13:15;;;;;;;6.60;3.53;;;;;;;;;;5018709;28;20148;-63
2022/03/12 03:15:41;;;;;;;6.75;3.60;;;;;;;;;;5028719;28;20395;-62
2022/03/12 03:18:11;;;;;;;5.95;3.78;;;;;;;;;;5028675;28;20079;-63
2022/03/12 03:20:37;;;;;;;6.70;3.47;;;;;;;;;;5028440;28;20014;-63
2022/03/12 03:23:06;;;;;;;7.30;4.00;;;;;;;;;;5028463;28;20060;-61
2022/03/12 03:25:32;;;;;;;6.68;3.88;;;;;;;;;;5028473;28;20021;-62
2022/03/12 03:27:59;;;;;;;6.63;3.55;;;;;;;;;;5029009;28;20099;-61
2022/03/12 03:30:25;;;;;;;6.05;3.55;;;;;;;;;;5028391;28;20026;-62
2022/03/12 03:32:51;;;;;;;6.70;3.92;;;;;;;;;;5027296;28;20049;-63
2022/03/12 03:35:17;;;;;;;6.07;3.22;;;;;;;;;;5028550;28;20033;-63
2022/03/12 03:37:43;;;;;;;9.45;3.88;;;;;;;;;;5028770;28;20108;-63
2022/03/12 03:40:10;;;;;;;6.82;3.42;;;;;;;;;;5027711;28;20025;-62
2022/03/12 03:42:36;;;;;;;6.95;4.05;;;;;;;;;;5028336;28;20483;-61
2022/03/12 03:45:02;;;;;;;6.15;3.55;;;;;;;;;;5028365;28;20112;-61
2022/03/12 03:47:29;;;;;;;7.13;3.75;;;;;;;;;;5026729;28;20033;-62
2022/03/12 03:49:55;;;;;;;5.82;3.53;;;;;;;;;;5028514;28;20033;-62
2022/03/12 03:52:21;;;;;;;5.65;3.63;;;;;;;;;;5028847;28;20148;-62
2022/03/12 03:54:47;;;;;;;6.75;3.67;;;;;;;;;;5028502;28;20196;-62
2022/03/12 03:57:17;;;;;;;8.73;4.18;;;;;;;;;;5027574;28;20033;-65
2022/03/12 03:59:43;;;;;;;6.63;3.65;;;;;;;;;;5028300;28;20033;-63
2022/03/12 04:02:09;;;;;;;6.63;3.85;;;;;;;;;;5028250;28;20057;-63
2022/03/12 04:04:38;;;;;;;6.15;3.67;;;;;;;;;;5028038;28;20053;-62
2022/03/12 04:07:05;;;;;;;6.30;3.70;;;;;;;;;;5028388;28;20496;-62
2022/03/12 04:09:31;;;;;;;6.20;3.70;;;;;;;;;;5031894;28;20021;-62
2022/03/12 04:11:57;;;;;;;5.65;3.55;;;;;;;;;;5031299;28;20037;-62
2022/03/12 04:14:25;;;;;;;5.75;3.25;;;;;;;;;;5031798;28;20428;-62
2022/03/12 04:16:52;;;;;;;7.57;3.75;;;;;;;;;;5032479;28;20021;-63
2022/03/12 04:19:18;;;;;;;6.75;3.45;;;;;;;;;;5032082;28;20033;-62
2022/03/12 04:21:45;;;;;;;6.60;3.70;;;;;;;;;;5031762;28;20040;-63
2022/03/12 04:24:13;;;;;;;6.68;3.83;;;;;;;;;;5031657;28;20902;-62
2022/03/12 04:26:40;;;;;;;7.15;3.47;;;;;;;;;;5032143;28;20080;-63
2022/03/12 04:29:09;;;;;;;6.10;3.63;;;;;;;;;;5026119;28;20047;-62
2022/03/12 04:31:35;;;;;;;6.35;3.53;;;;;;;;;;5031452;28;20798;-63
2022/03/12 04:34:01;;;;;;;6.45;3.72;;;;;;;;;;5031261;28;20029;-63
2022/03/12 04:36:28;;;;;;;5.65;3.28;;;;;;;;;;5032240;28;20033;-64
2022/03/12 04:38:54;;;;;;;6.93;3.83;;;;;;;;;;5032341;28;20029;-64
2022/03/12 04:41:21;;;;;;;6.20;3.83;;;;;;;;;;5031485;28;20032;-63
2022/03/12 04:43:49;;;;;;;5.85;3.25;;;;;;;;;;5018994;28;20400;-63
2022/03/12 04:46:15;;;;;;;6.25;3.20;;;;;;;;;;5031871;28;20109;-64
2022/03/12 04:48:41;;;;;;;6.03;3.50;;;;;;;;;;5031912;28;20041;-63
2022/03/12 04:51:07;;;;;;;6.57;3.90;;;;;;;;;;5031101;28;20045;-62
2022/03/12 04:53:34;;;;;;;6.10;3.30;;;;;;;;;;5030311;28;20132;-63
2022/03/12 04:56:00;;;;;;;15.05;9.00;;;;;;;;;;5030838;28;20052;-64
2022/03/12 04:58:28;;;;;;;16.65;9.98;;;;;;;;;;5030786;28;20056;-64
2022/03/12 05:00:54;;;;;;;17.15;10.05;;;;;;;;;;5031063;28;20063;-62
2022/03/12 05:03:23;;;;;;;15.98;10.23;;;;;;;;;;5030688;28;20103;-62
2022/03/12 05:05:50;;;;;;;16.05;9.73;;;;;;;;;;5030957;28;20025;-62
2022/03/12 05:08:18;;;;;;;16.75;10.60;;;;;;;;;;5030617;28;20029;-61
2022/03/12 05:10:49;;;;;;;20.65;11.73;;;;;;;;;;5031009;28;20045;-61
2022/03/12 05:13:16;;;;;;;16.08;10.73;;;;;;;;;;5031037;28;20144;-62
2022/03/12 05:15:43;;;;;;;20.85;11.65;;;;;;;;;;5030805;28;20061;-62
2022/03/12 05:18:11;;;;;;;18.85;10.98;;;;;;;;;;5031104;28;20108;-61
2022/03/12 05:20:38;;;;;;;17.05;10.63;;;;;;;;;;5029401;28;20487;-61
2022/03/12 05:23:07;;;;;;;16.88;11.32;;;;;;;;;;5018073;28;20116;-61
2022/03/12 05:25:33;;;;;;;23.05;10.95;;;;;;;;;;5020890;28;20025;-62
2022/03/12 05:27:59;;;;;;;19.40;10.38;;;;;;;;;;5030975;28;20032;-62
2022/03/12 05:30:27;;;;;;;22.73;11.20;;;;;;;;;;5030230;28;20513;-62
2022/03/12 05:32:53;;;;;;;17.27;10.13;;;;;;;;;;5030689;28;20091;-62
2022/03/12 05:35:20;;;;;;;22.10;9.95;;;;;;;;;;5030280;28;20026;-62
2022/03/12 05:37:50;;;;;;;18.15;10.13;;;;;;;;;;5026920;28;20029;-61
2022/03/12 05:40:19;;;;;;;15.77;10.98;;;;;;;;;;5030153;28;20032;-63
2022/03/12 05:42:47;;;;;;;17.73;9.80;;;;;;;;;;5030354;28;20604;-62
2022/03/12 05:45:14;;;;;;;14.80;10.18;;;;;;;;;;5030113;28;20041;-62
2022/03/12 05:47:42;;;;;;;19.58;9.05;;;;;;;;;;5020793;28;20036;-62
2022/03/12 05:50:09;;;;;;;16.38;9.27;;;;;;;;;;5030286;28;20064;-62
2022/03/12 05:52:38;;;;;;;15.70;8.10;;;;;;;;;;5029638;28;20044;-62
2022/03/12 05:55:05;;;;;;;12.73;8.47;;;;;;;;;;5030212;28;20032;-62
2022/03/12 05:57:32;;;;;;;14.43;7.57;;;;;;;;;;5029993;28;20395;-62
2022/03/12 06:00:01;;;;;;;17.33;8.60;;;;;;;;;;5010830;28;20030;-63
2022/03/12 06:02:29;;;;;;;17.37;8.20;;;;;;;;;;5026592;28;20025;-62
2022/03/12 06:04:58;;;;;;;20.08;7.68;;;;;;;;;;5029501;28;20893;-62
2022/03/12 06:07:27;;;;;;;13.48;7.13;;;;;;;;;;5029354;28;20021;-63
2022/03/12 06:09:53;;;;;;;14.32;7.43;;;;;;;;;;5030293;28;20029;-62
2022/03/12 06:12:20;;;;;;;19.48;7.30;;;;;;;;;;5029592;28;20052;-63
2022/03/12 06:14:55;;;;;;;14.40;7.50;;;;;;;;;;5030352;28;20040;-63
2022/03/12 06:17:22;;;;;;;19.63;7.65;;;;;;;;;;5025507;28;20034;-63
2022/03/12 06:19:48;;;;;;;15.13;6.65;;;;;;;;;;5029749;28;20041;-63
2022/03/12 06:22:14;;;;;;;12.20;6.25;;;;;;;;;;5029647;28;20037;-63
2022/03/12 06:24:40;;;;;;;16.27;6.28;;;;;;;;;;5029177;28;20033;-64
2022/03/12 06:27:07;;;;;;;13.30;6.82;;;;;;;;;;5029398;28;20105;-62
2022/03/12 06:29:35;;;;;;;13.82;6.65;;;;;;;;;;5029489;28;20546;-62
2022/03/12 06:32:01;;;;;;;18.48;6.78;;;;;;;;;;5027831;28;20034;-61
2022/03/12 06:34:28;;;;;;;15.48;6.85;;;;;;;;;;5029465;28;20597;-62
2022/03/12 06:36:55;;;;;;;16.70;5.88;;;;;;;;;;5029244;28;20040;-62
2022/03/12 06:39:21;;;;;;;14.07;6.25;;;;;;;;;;5029130;28;20021;-62
2022/03/12 06:41:47;;;;;;;9.88;5.30;;;;;;;;;;5023883;28;20026;-63
2022/03/12 06:44:14;;;;;;;10.88;5.53;;;;;;;;;;5027913;28;20065;-63
2022/03/12 06:46:40;;;;;;;12.77;5.10;;;;;;;;;;5029000;28;20040;-63
2022/03/12 06:49:06;;;;;;;15.07;5.78;;;;;;;;;;5029300;28;20021;-62
2022/03/12 06:51:33;;;;;;;12.90;6.18;;;;;;;;;;5028601;28;20363;-63
2022/03/12 06:53:59;;;;;;;12.77;5.57;;;;;;;;;;5028618;28;20022;-63
2022/03/12 06:56:25;;;;;;;13.32;5.38;;;;;;;;;;5024277;28;20037;-63
2022/03/12 06:58:51;;;;;;;12.77;6.32;;;;;;;;;;5020341;28;20444;-63
2022/03/12 07:01:18;;;;;;;10.00;5.43;;;;;;;;;;5028933;28;20380;-63
2022/03/12 07:03:44;;;;;;;12.52;5.07;;;;;;;;;;5028993;28;20544;-63
2022/03/12 07:06:10;;;;;;;13.07;4.85;;;;;;;;;;5028922;28;20061;-63
2022/03/12 07:08:36;;;;;;;10.68;4.75;;;;;;;;;;5028714;28;20018;-63
2022/03/12 07:11:05;;;;;;;10.10;5.38;;;;;;;;;;5027855;28;20048;-63
2022/03/12 07:13:31;;;;;;;16.13;5.93;;;;;;;;;;5024145;28;20058;-63
2022/03/12 07:15:57;;;;;;;11.25;4.90;;;;;;;;;;5028392;28;20022;-62
2022/03/12 07:18:24;;;;;;;11.02;4.93;;;;;;;;;;5027669;28;20028;-63
2022/03/12 07:20:50;;;;;;;13.43;5.22;;;;;;;;;;5028056;28;20028;-62
2022/03/12 07:23:16;;;;;;;10.00;4.80;;;;;;;;;;5028725;28;20091;-62
2022/03/12 07:25:42;;;;;;;8.05;4.65;;;;;;;;;;5027670;28;20032;-62
2022/03/12 07:28:10;;;;;;;7.65;4.60;;;;;;;;;;5027908;28;20033;-62
2022/03/12 07:30:36;;;;;;;12.43;5.63;;;;;;;;;;5028134;28;20037;-63
2022/03/12 07:33:02;;;;;;;20.33;5.20;;;;;;;;;;5028729;28;20072;-62
2022/03/12 07:35:28;;;;;;;13.73;5.18;;;;;;;;;;5028289;28;20083;-62
2022/03/12 07:37:54;;;;;;;13.93;5.07;;;;;;;;;;5028403;28;20056;-63
2022/03/12 07:40:20;;;;;;;17.23;5.55;;;;;;;;;;5027796;28;20542;-60
2022/03/12 07:42:47;;;;;;;18.23;4.90;;;;;;;;;;5026698;28;20069;-62
2022/03/12 07:45:14;;;;;;;17.23;5.80;;;;;;;;;;5027340;28;20033;-62
2022/03/12 07:47:40;;;;;;;11.77;5.35;;;;;;;;;;5027675;28;20070;-62
2022/03/12 07:50:07;;;;;;;15.50;5.30;;;;;;;;;;5027026;28;20026;-62
2022/03/12 07:52:35;;;;;;;12.43;5.07;;;;;;;;;;5025383;28;20053;-61
2022/03/12 07:55:02;;;;;;;13.65;5.15;;;;;;;;;;5027880;28;20116;-61
2022/03/12 07:57:29;;;;;;;14.20;4.32;;;;;;;;;;5027592;28;20041;-62
2022/03/12 07:59:56;;;;;;;17.45;7.30;;;;;;;;;;5028374;28;20030;-62
2022/03/12 08:02:22;;;;;;;12.50;7.55;;;;;;;;;;5021452;28;20562;-62
2022/03/12 08:04:48;;;;;;;15.15;8.80;;;;;;;;;;5011076;28;20042;-63
2022/03/12 08:07:15;;;;;;;17.02;8.13;;;;;;;;;;5027854;28;20069;-62
2022/03/12 08:09:40;;;;;;;18.40;9.38;;;;;;;;;;5024043;28;20034;-63
2022/03/12 08:12:07;;;;;;;17.05;8.93;;;;;;;;;;5026593;28;20396;-64
2022/03/12 08:14:34;;;;;;;17.15;9.18;;;;;;;;;;5027899;28;20036;-63
2022/03/12 08:17:00;;;;;;;14.63;8.73;;;;;;;;;;5023601;28;20030;-63
2022/03/12 08:19:27;;;;;;;18.38;9.25;;;;;;;;;;5015238;28;20363;-66
2022/03/12 08:21:53;;;;;;;17.65;8.90;;;;;;;;;;5022047;28;20039;-63
2022/03/12 08:24:20;;;;;;;16.67;9.35;;;;;;;;;;5026833;28;20026;-63
2022/03/12 08:26:47;;;;;;;12.82;8.23;;;;;;;;;;5020497;28;20776;-62
2022/03/12 08:29:15;;;;;;;12.85;8.23;;;;;;;;;;5020713;28;20045;-61
2022/03/12 08:31:42;;;;;;;13.85;8.55;;;;;;;;;;5023677;28;20033;-64
2022/03/12 08:34:08;;;;;;;13.05;8.43;;;;;;;;;;5026014;28;20088;-62
2022/03/12 08:36:34;;;;;;;13.30;8.90;;;;;;;;;;5027782;28;20492;-62
2022/03/12 08:39:00;;;;;;;12.30;7.75;;;;;;;;;;5026273;28;20112;-61
2022/03/12 08:41:27;;;;;;;10.55;7.03;;;;;;;;;;5027436;28;20076;-61
2022/03/12 08:43:53;;;;;;;12.70;7.57;;;;;;;;;;5027496;28;20395;-61
2022/03/12 08:46:20;;;;;;;13.20;6.90;;;;;;;;;;5027539;28;20116;-60
2022/03/12 08:48:46;;;;;;;12.13;7.13;;;;;;;;;;5013294;28;20077;-61
2022/03/12 08:51:12;;;;;;;9.48;5.88;;;;;;;;;;5019910;28;20049;-61
2022/03/12 08:53:39;;;;;;;11.45;6.80;;;;;;;;;;5020379;28;20550;-61
2022/03/12 08:56:06;;;;;;;11.88;6.43;;;;;;;;;;5022617;28;20025;-61
2022/03/12 08:58:33;;;;;;;12.82;6.38;;;;;;;;;;5023592;28;20037;-64
2022/03/12 09:01:01;;;;;;;9.23;5.70;;;;;;;;;;5023227;28;20021;-64
2022/03/12 09:03:27;;;;;;;11.57;5.97;;;;;;;;;;5023392;28;20444;-63
2022/03/12 09:05:54;;;;;;;11.25;5.50;;;;;;;;;;5021613;28;20144;-63
2022/03/12 09:08:20;;;;;;;10.10;5.68;;;;;;;;;;5025198;28;20025;-64
2022/03/12 09:10:46;;;;;;;10.55;6.30;;;;;;;;;;5021958;28;20562;-63
2022/03/12 09:13:16;;;;;;;10.55;6.15;;;;;;;;;;5020502;28;20111;-63
2022/03/12 09:15:42;;;;;;;12.00;6.80;;;;;;;;;;5019944;28;20037;-63
2022/03/12 09:18:09;;;;;;;12.00;6.78;;;;;;;;;;5021654;28;20029;-64
2022/03/12 09:20:43;;;;;;;10.23;5.72;;;;;;;;;;5023375;28;20124;-63
2022/03/12 09:23:09;;;;;;;11.13;6.60;;;;;;;;;;5020340;28;20029;-63
2022/03/12 09:25:35;;;;;;;10.50;6.20;;;;;;;;;;5020945;28;20130;-63
2022/03/12 09:28:02;;;;;;;10.25;6.05;;;;;;;;;;5021217;28;20044;-63
2022/03/12 09:30:29;;;;;;;12.13;6.38;;;;;;;;;;5021966;28;22682;-63
2022/03/12 09:32:55;;;;;;;12.23;6.80;;;;;;;;;;5021520;28;20049;-63
2022/03/12 09:35:21;;;;;;;12.43;6.32;;;;;;;;;;5019819;28;20129;-64
2022/03/12 09:37:47;;;;;;;10.65;6.93;;;;;;;;;;5023443;28;20052;-64
2022/03/12 09:40:17;;;;;;;11.85;6.72;;;;;;;;;;5021168;28;20037;-64
2022/03/12 09:42:43;;;;;;;10.25;6.20;;;;;;;;;;5020922;28;20026;-63
2022/03/12 09:45:10;;;;;;;12.93;6.57;;;;;;;;;;5020152;28;20502;-63
2022/03/12 09:47:36;;;;;;;9.68;6.22;;;;;;;;;;5020133;28;20079;-63
2022/03/12 09:50:02;;;;;;;13.13;6.70;;;;;;;;;;5023458;28;20029;-63
2022/03/12 09:52:29;;;;;;;10.23;5.70;;;;;;;;;;5019924;28;20029;-64
2022/03/12 09:54:55;;;;;;;10.57;5.47;;;;;;;;;;5022193;28;20060;-63
2022/03/12 09:57:21;;;;;;;12.10;6.45;;;;;;;;;;5020824;28;20054;-63
2022/03/12 09:59:48;;;;;;;11.57;7.30;;;;;;;;;;5020692;28;20033;-63
2022/03/12 10:02:14;;;;;;;14.32;6.80;;;;;;;;;;5021211;28;20178;-62
2022/03/12 10:04:40;;;;;;;15.93;6.97;;;;;;;;;;5022570;28;20028;-63
2022/03/12 10:07:09;;;;;;;15.45;6.95;;;;;;;;;;5028538;28;20051;-63
2022/03/12 10:09:35;;;;;;;12.40;6.47;;;;;;;;;;5029395;28;20025;-62
2022/03/12 10:12:01;;;;;;;10.27;5.90;;;;;;;;;;5028856;28;20648;-63
2022/03/12 10:14:28;;;;;;;10.68;5.88;;;;;;;;;;5028595;28;20502;-63
2022/03/12 10:16:54;;;;;;;9.38;6.13;;;;;;;;;;5028576;28;20121;-63
2022/03/12 10:19:20;;;;;;;11.43;5.70;;;;;;;;;;5029157;28;20037;-64
2022/03/12 10:21:52;;;;;;;13.43;6.07;;;;;;;;;;5029846;28;20101;-64
2022/03/12 10:24:18;;;;;;;13.82;6.32;;;;;;;;;;5029220;28;20108;-64
2022/03/12 10:26:45;;;;;;;10.23;5.10;;;;;;;;;;5029182;28;20487;-64
2022/03/12 10:29:11;;;;;;;11.57;5.90;;;;;;;;;;5029617;28;20084;-63
2022/03/12 10:31:38;;;;;;;11.45;5.15;;;;;;;;;;5027280;28;20120;-64
2022/03/12 10:34:21;;;;;;;7.75;5.15;;;;;;;;;;5015378;28;20034;-64
2022/03/12 10:36:48;;;;;;;8.45;5.18;;;;;;;;;;5026631;28;20030;-64
2022/03/12 10:39:14;;;;;;;9.77;5.38;;;;;;;;;;5029181;28;20117;-64
2022/03/12 10:41:41;;;;;;;10.77;4.68;;;;;;;;;;5028727;28;20045;-64
2022/03/12 10:44:07;;;;;;;8.35;4.13;;;;;;;;;;5029594;28;20044;-64
2022/03/12 10:46:35;;;;;;;11.50;4.68;;;;;;;;;;5028500;28;20033;-64
2022/03/12 10:49:03;;;;;;;7.72;4.40;;;;;;;;;;5029558;28;20447;-64
2022/03/12 10:51:31;;;;;;;13.07;4.43;;;;;;;;;;5028227;28;20124;-64
2022/03/12 10:54:15;;;;;;;8.55;3.80;;;;;;;;;;5028151;28;20436;-64
2022/03/12 10:56:48;;;;;;;8.10;4.15;;;;;;;;;;5019565;28;20181;-65
2022/03/12 10:59:19;;;;;;;10.77;3.75;;;;;;;;;;5019018;28;20036;-64
2022/03/12 11:01:49;;;;;;;8.98;4.25;;;;;;;;;;5022228;28;20044;-65
2022/03/12 11:04:17;;;;;;;8.13;4.10;;;;;;;;;;5022607;28;20611;-64
2022/03/12 11:06:43;;;;;;;9.85;3.60;;;;;;;;;;5022377;28;20048;-62
2022/03/12 11:09:14;;;;;;;8.68;3.75;;;;;;;;;;5019991;28;20025;-63
2022/03/12 11:11:45;;;;;;;9.65;3.95;;;;;;;;;;5018393;28;20034;-64
2022/03/12 11:14:21;;;;;;;6.60;3.20;;;;;;;;;;5019970;28;20038;-64
2022/03/12 11:16:50;;;;;;;9.23;4.25;;;;;;;;;;5018747;28;20038;-63
2022/03/12 11:19:17;;;;;;;12.35;4.60;;;;;;;;;;5021165;28;20033;-62
2022/03/12 11:21:52;;;;;;;7.63;3.72;;;;;;;;;;5019894;28;20029;-64
2022/03/12 11:24:22;;;;;;;9.02;4.15;;;;;;;;;;5022156;28;20037;-63
2022/03/12 11:26:49;;;;;;;10.82;4.68;;;;;;;;;;5019222;28;20112;-63
2022/03/12 11:29:17;;;;;;;7.72;4.03;;;;;;;;;;5021239;28;20345;-64
2022/03/12 11:31:47;;;;;;;12.65;3.88;;;;;;;;;;5018941;28;20416;-63
2022/03/12 11:34:19;;;;;;;7.72;4.03;;;;;;;;;;5018243;28;20037;-63
2022/03/12 11:36:46;;;;;;;9.63;4.05;;;;;;;;;;5021908;28;20382;-64
2022/03/12 11:39:42;;;;;;;10.73;4.38;;;;;;;;;;5021552;28;20025;-63
2022/03/12 11:42:12;;;;;;;8.80;4.22;;;;;;;;;;5012991;28;20037;-63
2022/03/12 11:44:38;;;;;;;;;;;;;;;;;;5018412;28;20033;-63
2022/03/12 11:47:05;;;;;;;8.63;4.00;;;;;;;;;;5022265;28;19924;-64
2022/03/12 11:49:32;;;;;;;8.23;3.85;;;;;;;;;;5019899;28;20030;-64
2022/03/12 11:51:59;;;;;;;7.53;3.55;;;;;;;;;;5021125;28;20102;-64
2022/03/12 11:54:26;;;;;;;14.90;4.40;;;;;;;;;;5020892;28;20033;-66
2022/03/12 11:56:53;;;;;;;11.23;3.70;;;;;;;;;;5017000;28;20060;-63
2022/03/12 11:59:20;;;;;;;9.32;4.00;;;;;;;;;;5017854;28;21471;-64
2022/03/12 12:02:00;;;;;;;9.43;3.22;;;;;;;;;;5020131;28;20045;-64
2022/03/12 12:04:28;;;;;;;9.82;3.70;;;;;;;;;;5018988;28;20029;-63
2022/03/12 12:06:55;;;;;;;8.30;3.28;;;;;;;;;;5020037;28;20506;-64
2022/03/12 12:09:21;;;;;;;8.55;3.20;;;;;;;;;;5019603;28;20033;-64
2022/03/12 12:11:47;;;;;;;7.43;3.10;;;;;;;;;;5018891;28;20045;-64
2022/03/12 12:14:14;;;;;;;6.70;3.40;;;;;;;;;;5019737;28;20030;-64
2022/03/12 12:16:43;;;;;;;8.82;3.22;;;;;;;;;;5018800;28;20037;-65
2022/03/12 12:19:09;;;;;;;10.80;4.95;;;;;;;;;;5019270;28;20033;-63
2022/03/12 12:21:35;;;;;;;9.45;4.75;;;;;;;;;;5017627;28;20518;-63
2022/03/12 12:24:21;;;;;;;10.85;5.28;;;;;;;;;;5017692;28;20034;-64
2022/03/12 12:27:04;;;;;;;9.23;4.90;;;;;;;;;;5015803;28;20600;-64
2022/03/12 12:29:42;;;;;;;11.40;5.68;;;;;;;;;;5019872;28;20034;-64
2022/03/12 12:32:09;;;;;;;12.55;5.32;;;;;;;;;;5022376;28;20076;-64
2022/03/12 12:34:35;;;;;;;12.45;5.35;;;;;;;;;;5022649;28;20037;-64
2022/03/12 12:37:05;;;;;;;7.97;4.78;;;;;;;;;;5022560;28;20026;-64
2022/03/12 12:39:32;;;;;;;;;;;;;;;;;;5022970;28;20456;-63
2022/03/12 12:42:01;;;;;;;12.30;5.50;;;;;;;;;;5022212;28;21433;-63
2022/03/12 12:44:34;;;;;;;11.20;5.40;;;;;;;;;;5023898;28;20034;-64
2022/03/12 12:47:02;;;;;;;11.55;5.03;;;;;;;;;;5023484;28;20095;-64
2022/03/12 12:49:38;;;;;;;16.25;4.63;;;;;;;;;;5023514;28;20540;-64
2022/03/12 12:52:05;;;;;;;9.23;4.53;;;;;;;;;;5024331;28;20053;-63
2022/03/12 12:54:46;;;;;;;10.02;5.15;;;;;;;;;;5024507;28;20032;-64
2022/03/12 12:57:12;;;;;;;9.85;5.13;;;;;;;;;;5024349;28;20041;-64
2022/03/12 12:59:47;;;;;;;9.32;4.25;;;;;;;;;;5021633;28;20018;-63
2022/03/12 13:02:14;;;;;;;13.13;5.50;;;;;;;;;;5022395;28;20029;-64
2022/03/12 13:04:45;;;;;;;9.07;4.20;;;;;;;;;;5023355;28;20029;-63
2022/03/12 13:07:19;;;;;;;8.73;4.35;;;;;;;;;;5019512;28;20036;-64
2022/03/12 13:09:48;;;;;;;13.23;4.80;;;;;;;;;;5024310;28;20104;-64
2022/03/12 13:12:15;;;;;;;9.15;4.60;;;;;;;;;;5023909;28;20172;-64
2022/03/12 13:14:45;;;;;;;7.57;4.05;;;;;;;;;;5023272;28;20096;-64
2022/03/12 13:17:25;;;;;;;11.50;4.95;;;;;;;;;;5023064;28;20014;-64
2022/03/12 13:19:51;;;;;;;;;;;;;;;;;;5022379;28;20025;-64
2022/03/12 13:22:18;;;;;;;9.13;4.75;;;;;;;;;;5024033;28;20050;-64
2022/03/12 13:24:52;;;;;;;11.95;4.20;;;;;;;;;;5022238;28;20341;-64
2022/03/12 13:27:26;;;;;;;8.90;4.25;;;;;;;;;;5023897;28;20049;-64
2022/03/12 13:30:10;;;;;;;12.38;4.05;;;;;;;;;;5021473;28;20030;-64
2022/03/12 13:32:38;;;;;;;13.38;4.80;;;;;;;;;;5022147;28;20042;-64
2022/03/12 13:35:04;;;;;;;9.95;4.22;;;;;;;;;;5021915;28;20176;-64
2022/03/12 13:37:30;;;;;;;10.20;4.70;;;;;;;;;;5021353;28;20179;-64
2022/03/12 13:40:09;;;;;;;10.50;4.25;;;;;;;;;;5022525;28;20061;-64
2022/03/12 13:42:56;;;;;;;10.07;4.87;;;;;;;;;;5022287;28;20031;-64
2022/03/12 13:45:23;;;;;;;11.25;4.20;;;;;;;;;;5019930;28;20288;-64
2022/03/12 13:47:50;;;;;;;13.13;4.80;;;;;;;;;;5021364;28;20144;-64
2022/03/12 13:50:16;;;;;;;8.23;3.47;;;;;;;;;;5022188;28;20037;-64
2022/03/12 13:52:42;;;;;;;12.77;4.28;;;;;;;;;;5021793;28;20414;-64
2022/03/12 13:55:10;;;;;;;7.55;3.67;;;;;;;;;;5021443;28;20107;-64
2022/03/12 13:57:38;;;;;;;9.90;4.20;;;;;;;;;;5022059;28;20037;-64
2022/03/12 14:00:09;;;;;;;12.65;4.50;;;;;;;;;;5020210;28;20130;-64
2022/03/12 14:02:44;;;;;;;8.48;4.90;;;;;;;;;;5021744;28;20183;-64
2022/03/12 14:05:11;;;;;;;16.58;4.57;;;;;;;;;;5021827;28;20475;-64
2022/03/12 14:07:37;;;;;;;11.85;3.97;;;;;;;;;;5020286;28;20041;-65
2022/03/12 14:10:07;;;;;;;8.07;3.83;;;;;;;;;;5020156;28;20096;-65
2022/03/12 14:12:33;;;;;;;14.35;5.10;;;;;;;;;;5021132;28;20037;-64
2022/03/12 14:15:00;;;;;;;11.98;3.58;;;;;;;;;;5020537;28;20128;-65
2022/03/12 14:17:28;;;;;;;11.98;3.42;;;;;;;;;;5020410;28;20175;-65
2022/03/12 14:19:58;;;;;;;7.97;4.30;;;;;;;;;;5021242;28;20124;-65
2022/03/12 14:22:27;;;;;;;9.45;3.75;;;;;;;;;;5024195;28;20025;-65
2022/03/12 14:24:55;;;;;;;13.02;3.65;;;;;;;;;;5021934;28;20032;-65
2022/03/12 14:27:29;;;;;;;11.57;3.33;;;;;;;;;;5018824;28;20041;-65
2022/03/12 14:29:57;;;;;;;9.32;3.33;;;;;;;;;;5018063;28;20033;-65
2022/03/12 14:32:23;;;;;;;9.68;2.90;;;;;;;;;;5020941;28;20049;-65
2022/03/12 14:34:49;;;;;;;13.02;3.47;;;;;;;;;;5019475;28;20040;-65
2022/03/12 14:37:16;;;;;;;7.50;2.92;;;;;;;;;;5022678;28;20037;-64
2022/03/12 14:39:44;;;;;;;9.43;3.17;;;;;;;;;;5019686;28;20091;-64
2022/03/12 14:42:11;;;;;;;17.08;3.55;;;;;;;;;;5019419;28;20501;-65